Time;durP1;ratioP1;P1;durP2;ratioP2;P2;SDS_P1;SDS_P2;PMS_P1;PMS_P2;Temp;Humidity;BMP_temperature;BMP_pressure;BME280_temperature;BME280_humidity;BME280_pressure;Samples;Min_cycle;Max_cycle;Signal;HPM_P1;HPM_P2
2022/09/17 00:01:16;;;;;;;22.08;3.17;;;11.60;99.90;;;;;;5038497;28;20514;-71
2022/09/17 00:03:42;;;;;;;19.35;3.58;;;11.70;99.90;;;;;;5034223;28;20547;-69
2022/09/17 00:06:11;;;;;;;20.02;3.63;;;11.70;99.90;;;;;;5051130;28;20036;-71
2022/09/17 00:08:38;;;;;;;20.08;3.35;;;11.70;99.90;;;;;;5046862;28;20044;-71
2022/09/17 00:11:16;;;;;;;15.35;2.70;;;11.70;99.90;;;;;;5041126;28;20049;-68
2022/09/17 00:13:43;;;;;;;26.08;3.22;;;11.60;99.90;;;;;;5046867;28;20037;-70
2022/09/17 00:16:09;;;;;;;21.75;3.30;;;11.70;99.90;;;;;;5041574;28;20044;-71
2022/09/17 00:18:39;;;;;;;17.23;2.67;;;11.70;99.90;;;;;;5031283;28;20041;-70
2022/09/17 00:21:05;;;;;;;11.93;3.17;;;11.60;99.90;;;;;;5039810;28;20115;-70
2022/09/17 00:23:31;;;;;;;10.23;2.03;;;11.60;99.90;;;;;;5042667;28;20038;-71
2022/09/17 00:25:57;;;;;;;11.25;2.83;;;11.60;99.90;;;;;;5046596;28;20412;-70
2022/09/17 00:28:24;;;;;;;17.23;3.08;;;11.20;99.90;;;;;;5041610;28;20164;-73
2022/09/17 00:30:49;;;;;;;22.35;3.13;;;10.90;99.90;;;;;;5040506;28;20033;-71
2022/09/17 00:33:17;;;;;;;18.35;3.30;;;10.70;99.90;;;;;;5038678;28;20044;-71
2022/09/17 00:35:43;;;;;;;17.20;2.63;;;10.50;99.90;;;;;;5040346;28;20136;-72
2022/09/17 00:38:10;;;;;;;21.85;3.50;;;10.40;99.90;;;;;;5043374;28;20051;-77
2022/09/17 00:40:36;;;;;;;19.92;3.50;;;10.30;99.90;;;;;;5041961;28;20043;-71
2022/09/17 00:43:02;;;;;;;15.48;3.28;;;10.30;99.90;;;;;;5035202;28;20514;-70
2022/09/17 00:45:30;;;;;;;18.10;3.45;;;10.30;99.90;;;;;;5044646;28;20120;-71
2022/09/17 00:48:03;;;;;;;17.27;2.83;;;10.30;99.90;;;;;;5043208;28;20048;-70
2022/09/17 00:50:37;;;;;;;20.73;3.35;;;10.20;99.90;;;;;;5040951;28;20128;-73
2022/09/17 00:53:09;;;;;;;18.20;3.47;;;10.20;99.90;;;;;;5046202;28;20037;-71
2022/09/17 00:55:47;;;;;;;26.60;4.50;;;10.20;99.90;;;;;;5043360;28;20041;-72
2022/09/17 00:58:15;;;;;;;30.83;4.20;;;10.20;99.90;;;;;;5040055;28;20487;-71
2022/09/17 01:00:41;;;;;;;23.75;4.20;;;10.10;99.90;;;;;;5046327;28;20044;-70
2022/09/17 01:03:07;;;;;;;24.23;4.03;;;10.20;99.90;;;;;;5036437;28;20049;-71
2022/09/17 01:05:45;;;;;;;19.33;3.50;;;10.20;99.90;;;;;;5043041;28;20379;-71
2022/09/17 01:08:47;;;;;;;24.90;3.70;;;10.20;99.90;;;;;;5043429;28;20081;-71
2022/09/17 01:11:35;;;;;;;29.77;4.05;;;10.20;99.90;;;;;;5055909;28;20328;-71
2022/09/17 01:14:19;;;;;;;21.92;3.75;;;10.20;99.90;;;;;;5045948;28;20041;-71
2022/09/17 01:17:23;;;;;;;21.80;3.63;;;10.20;99.90;;;;;;5028140;28;20125;-71
2022/09/17 01:20:14;;;;;;;24.27;4.68;;;10.10;99.90;;;;;;5052791;28;20106;-71
2022/09/17 01:22:45;;;;;;;25.52;4.43;;;10.10;99.90;;;;;;5038286;28;20041;-71
2022/09/17 01:25:35;;;;;;;27.08;4.57;;;10.10;99.90;;;;;;5041311;28;20049;-70
2022/09/17 01:28:04;;;;;;;27.48;4.45;;;10.20;99.90;;;;;;5045480;28;20144;-71
2022/09/17 01:30:31;;;;;;;;;;;10.20;99.90;;;;;;5048091;28;20041;-71
2022/09/17 01:33:20;;;;;;;25.02;3.20;;;10.30;99.90;;;;;;5045213;28;20066;-70
2022/09/17 01:36:25;;;;;;;22.58;3.83;;;10.20;99.90;;;;;;5244249;22;20048;-86
2022/09/17 01:39:14;;;;;;;21.27;4.07;;;10.20;99.90;;;;;;5080103;28;20055;-88
2022/09/17 01:42:08;;;;;;;28.30;3.65;;;10.30;99.90;;;;;;5080361;28;20039;-86
2022/09/17 01:45:15;;;;;;;25.90;3.60;;;9.50;99.90;;;;;;5077846;28;20087;-87
2022/09/17 01:47:51;;;;;;;27.50;4.05;;;10.60;99.90;;;;;;5099739;28;20063;-87
2022/09/17 01:53:13;;;;;;;14.20;3.15;;;10.60;99.90;;;;;;5401252;22;20046;-88
2022/09/17 01:55:48;;;;;;;26.17;4.10;;;10.60;99.90;;;;;;5099348;28;20035;-88
2022/09/17 01:58:21;;;;;;;27.13;3.42;;;10.60;99.90;;;;;;5098633;28;20031;-88
2022/09/17 02:01:05;;;;;;;26.92;4.15;;;9.70;99.90;;;;;;5084645;28;20052;-87
2022/09/17 02:03:48;;;;;;;26.73;4.00;;;10.90;99.90;;;;;;5085962;28;20048;-87
2022/09/17 02:06:32;;;;;;;23.02;3.80;;;10.70;99.90;;;;;;5097125;28;20047;-87
2022/09/17 02:09:28;;;;;;;25.15;4.53;;;11.00;99.90;;;;;;5081205;28;20131;-86
2022/09/17 02:12:03;;;;;;;17.90;3.33;;;10.60;99.90;;;;;;5059091;28;20040;-89
2022/09/17 02:14:51;;;;;;;25.90;3.53;;;11.60;99.90;;;;;;5064950;28;20040;-88
2022/09/17 02:17:34;;;;;;;19.77;3.55;;;11.70;99.90;;;;;;5064157;28;20043;-88
2022/09/17 02:20:02;;;;;;;20.00;3.20;;;10.60;99.90;;;;;;5081756;28;20028;-88
2022/09/17 02:22:47;;;;;;;16.25;3.30;;;10.10;99.90;;;;;;5084955;28;20024;-86
2022/09/17 02:25:23;;;;;;;16.48;3.20;;;10.60;99.90;;;;;;5103142;28;20080;-89
2022/09/17 02:28:40;;;;;;;24.52;3.83;;;10.60;99.90;;;;;;5082215;28;20020;-87
2022/09/17 02:31:15;;;;;;;19.40;2.90;;;10.70;99.90;;;;;;5017297;28;20034;-88
2022/09/17 02:33:48;;;;;;;19.10;3.03;;;11.70;99.90;;;;;;5096454;28;20043;-87
2022/09/17 02:36:17;;;;;;;31.15;4.05;;;10.70;99.90;;;;;;5093270;28;20040;-87
2022/09/17 02:38:45;;;;;;;23.27;3.33;;;10.60;99.90;;;;;;5079966;28;20028;-87
2022/09/17 02:41:53;;;;;;;18.50;2.55;;;10.70;99.90;;;;;;5100447;28;20036;-88
2022/09/17 02:44:46;;;;;;;15.27;2.78;;;10.60;99.90;;;;;;5078853;28;20044;-87
2022/09/17 02:47:37;;;;;;;16.45;2.95;;;10.40;99.90;;;;;;5085716;28;20024;-88
2022/09/17 02:50:35;;;;;;;16.00;2.95;;;10.60;99.90;;;;;;5086668;28;20028;-88
2022/09/17 02:53:18;;;;;;;22.10;3.28;;;10.70;99.90;;;;;;5064494;28;20101;-88
2022/09/17 02:56:19;;;;;;;26.50;3.55;;;10.70;99.90;;;;;;5083113;28;20040;-88
2022/09/17 02:58:53;;;;;;;22.15;2.95;;;10.80;99.90;;;;;;5076367;28;20040;-87
2022/09/17 03:01:52;;;;;;;22.08;3.30;;;11.00;99.90;;;;;;5094194;27;20024;-87
2022/09/17 03:04:22;;;;;;;24.45;3.13;;;10.80;99.90;;;;;;5057069;28;20047;-88
2022/09/17 03:06:52;;;;;;;20.65;3.25;;;10.80;99.90;;;;;;5119539;28;20044;-88
2022/09/17 03:09:19;;;;;;;17.35;3.50;;;10.70;99.90;;;;;;5098076;28;20608;-87
2022/09/17 03:11:53;;;;;;;26.23;3.60;;;10.90;99.90;;;;;;5091607;28;20040;-86
2022/09/17 03:14:25;;;;;;;20.38;3.33;;;10.70;99.90;;;;;;5083388;28;20044;-87
2022/09/17 03:16:53;;;;;;;25.02;4.07;;;10.70;99.90;;;;;;5076864;28;20047;-85
2022/09/17 03:19:20;;;;;;;14.38;3.50;;;10.60;99.90;;;;;;5069464;28;20032;-86
2022/09/17 03:21:46;;;;;;;21.85;4.32;;;10.70;99.90;;;;;;5072131;28;20087;-87
2022/09/17 03:24:12;;;;;;;13.80;2.58;;;10.50;99.90;;;;;;5077456;28;20103;-87
2022/09/17 03:26:46;;;;;;;19.73;3.67;;;10.50;99.90;;;;;;5066507;28;20044;-87
2022/09/17 03:29:15;;;;;;;16.60;2.83;;;10.50;99.90;;;;;;5059018;28;20052;-88
2022/09/17 03:31:51;;;;;;;15.30;2.50;;;11.50;99.90;;;;;;5066248;28;20036;-88
2022/09/17 03:34:17;;;;;;;25.73;3.22;;;10.50;99.90;;;;;;5085367;28;20051;-87
2022/09/17 03:36:49;;;;;;;25.17;3.15;;;11.70;99.90;;;;;;5061448;28;20049;-87
2022/09/17 03:39:15;;;;;;;22.98;3.53;;;9.80;99.90;;;;;;5062743;28;20032;-87
2022/09/17 03:41:50;;;;;;;17.33;2.50;;;10.50;99.90;;;;;;5062682;28;20056;-88
2022/09/17 03:44:18;;;;;;;10.27;2.40;;;10.60;99.90;;;;;;5084089;28;20120;-86
2022/09/17 03:46:52;;;;;;;17.58;2.55;;;10.50;99.90;;;;;;5083463;28;20036;-86
2022/09/17 03:49:22;;;;;;;13.20;2.28;;;10.80;99.90;;;;;;5092741;28;20039;-87
2022/09/17 03:51:54;;;;;;;19.58;2.40;;;10.30;99.90;;;;;;5087652;28;20047;-86
2022/09/17 03:54:22;;;;;;;11.57;2.50;;;10.80;99.90;;;;;;5056658;28;20040;-86
2022/09/17 03:56:58;;;;;;;11.38;2.60;;;10.80;99.90;;;;;;5070786;28;20033;-87
2022/09/17 03:59:26;;;;;;;16.48;2.55;;;11.60;99.90;;;;;;5055796;28;20036;-87
2022/09/17 04:01:52;;;;;;;20.15;3.55;;;10.20;99.90;;;;;;5058308;28;20049;-86
2022/09/17 04:04:28;;;;;;;13.57;2.60;;;11.30;99.90;;;;;;5069225;28;20048;-86
2022/09/17 04:06:54;;;;;;;21.17;3.10;;;10.80;99.90;;;;;;5045853;28;20060;-88
2022/09/17 04:09:22;;;;;;;18.15;2.65;;;10.50;99.90;;;;;;5048093;28;20108;-88
2022/09/17 04:11:51;;;;;;;;;;;10.50;99.90;;;;;;5057668;28;20041;-88
2022/09/17 04:14:17;;;;;;;17.05;3.28;;;10.40;99.90;;;;;;5075808;28;19921;-86
2022/09/17 04:16:44;;;;;;;24.45;3.17;;;11.30;99.90;;;;;;5063925;28;20037;-87
2022/09/17 04:19:15;;;;;;;15.73;2.50;;;9.60;99.90;;;;;;5050355;28;20066;-87
2022/09/17 04:21:49;;;;;;;19.27;2.95;;;9.70;99.90;;;;;;5057627;28;20550;-88
2022/09/17 04:24:23;;;;;;;20.58;2.97;;;11.30;99.90;;;;;;5068000;28;20020;-86
2022/09/17 04:26:49;;;;;;;20.73;2.78;;;10.00;99.90;;;;;;5037647;28;20045;-87
2022/09/17 04:29:15;;;;;;;17.23;3.70;;;11.20;99.90;;;;;;5065940;23;20084;-69
2022/09/17 04:31:41;;;;;;;15.27;2.42;;;10.20;99.90;;;;;;5063474;28;20145;-70
2022/09/17 04:34:07;;;;;;;17.25;2.58;;;10.30;99.90;;;;;;5040460;28;20140;-70
2022/09/17 04:36:32;;;;;;;15.27;2.33;;;10.30;99.90;;;;;;5059679;28;20041;-70
2022/09/17 04:38:58;;;;;;;19.50;3.25;;;10.20;99.90;;;;;;5063145;28;20043;-71
2022/09/17 04:41:24;;;;;;;13.10;2.42;;;10.20;99.90;;;;;;5047492;28;20048;-70
2022/09/17 04:43:49;;;;;;;18.35;3.25;;;10.20;99.90;;;;;;5066865;28;20052;-71
2022/09/17 04:46:15;;;;;;;16.95;2.72;;;10.20;99.90;;;;;;5040875;28;20090;-70
2022/09/17 04:48:41;;;;;;;21.55;2.95;;;10.20;99.90;;;;;;5037584;28;20120;-70
2022/09/17 04:51:07;;;;;;;24.73;3.13;;;10.20;99.90;;;;;;5028625;28;20489;-69
2022/09/17 04:53:33;;;;;;;18.75;3.13;;;10.30;99.90;;;;;;5049678;28;20037;-69
2022/09/17 04:55:58;;;;;;;16.38;3.17;;;10.20;99.90;;;;;;5062739;28;20128;-69
2022/09/17 04:58:24;;;;;;;15.75;3.58;;;10.20;99.90;;;;;;5047574;28;20040;-70
2022/09/17 05:00:49;;;;;;;19.95;2.55;;;10.20;99.90;;;;;;5041561;28;20072;-70
2022/09/17 05:03:15;;;;;;;15.05;2.97;;;10.10;99.90;;;;;;5059050;28;20040;-70
2022/09/17 05:05:41;;;;;;;12.50;2.97;;;10.10;99.90;;;;;;5062452;28;20047;-70
2022/09/17 05:08:07;;;;;;;18.00;2.75;;;10.00;99.90;;;;;;5066482;28;20051;-70
2022/09/17 05:10:33;;;;;;;18.73;2.05;;;10.10;99.90;;;;;;5023712;28;20055;-70
2022/09/17 05:12:58;;;;;;;18.40;3.15;;;10.20;99.90;;;;;;5043774;28;20040;-68
2022/09/17 05:15:25;;;;;;;13.40;2.42;;;10.30;99.90;;;;;;5026892;28;20398;-69
2022/09/17 05:17:51;;;;;;;20.73;3.15;;;10.30;99.90;;;;;;5044674;28;20487;-70
2022/09/17 05:20:17;;;;;;;12.63;2.80;;;10.30;99.90;;;;;;5044433;28;20173;-69
2022/09/17 05:22:45;;;;;;;19.70;2.78;;;10.30;99.90;;;;;;5044297;28;20041;-70
2022/09/17 05:25:12;;;;;;;22.75;3.10;;;10.40;99.90;;;;;;5045063;28;20433;-70
2022/09/17 05:27:38;;;;;;;19.17;2.35;;;10.60;99.90;;;;;;5047027;28;20103;-69
2022/09/17 05:30:04;;;;;;;15.20;2.53;;;10.60;99.90;;;;;;5036277;28;20041;-70
2022/09/17 05:32:30;;;;;;;20.65;3.10;;;10.70;99.90;;;;;;5025780;28;20048;-69
2022/09/17 05:34:55;;;;;;;18.55;2.50;;;10.80;99.90;;;;;;5030559;28;20402;-70
2022/09/17 05:37:21;;;;;;;22.63;3.45;;;10.90;99.90;;;;;;5018543;28;20033;-70
2022/09/17 05:39:46;;;;;;;17.75;3.20;;;10.90;99.90;;;;;;5049356;28;20045;-69
2022/09/17 05:42:12;;;;;;;20.55;3.03;;;11.00;99.90;;;;;;5045193;28;20565;-69
2022/09/17 05:44:38;;;;;;;13.18;2.35;;;11.10;99.90;;;;;;5044851;28;20037;-69
2022/09/17 05:47:04;;;;;;;15.52;3.05;;;11.20;99.90;;;;;;5048760;28;20065;-70
2022/09/17 05:49:29;;;;;;;15.48;3.00;;;11.20;99.90;;;;;;5051826;28;20045;-70
2022/09/17 05:51:55;;;;;;;21.70;3.05;;;11.10;99.90;;;;;;5048543;28;20047;-69
2022/09/17 05:54:20;;;;;;;16.38;2.70;;;11.20;99.90;;;;;;5043838;28;20034;-70
2022/09/17 05:56:46;;;;;;;31.42;4.82;;;11.10;99.90;;;;;;5039732;28;20120;-70
2022/09/17 05:59:13;;;;;;;23.05;3.60;;;11.10;99.90;;;;;;5052471;28;20072;-72
2022/09/17 06:01:39;;;;;;;20.77;3.40;;;11.00;99.90;;;;;;5045578;28;20075;-70
2022/09/17 06:04:04;;;;;;;20.25;2.88;;;10.90;99.90;;;;;;5049466;28;20494;-70
2022/09/17 06:06:30;;;;;;;29.27;3.28;;;10.80;99.90;;;;;;5014791;28;20055;-72
2022/09/17 06:08:58;;;;;;;8.93;2.13;;;10.80;99.90;;;;;;5029890;28;20045;-71
2022/09/17 06:11:24;;;;;;;18.17;2.47;;;10.70;99.90;;;;;;5050103;28;20160;-71
2022/09/17 06:13:54;;;;;;;12.50;2.70;;;10.50;99.90;;;;;;5045240;28;20044;-71
2022/09/17 06:16:21;;;;;;;11.93;2.20;;;10.40;99.90;;;;;;5046809;28;20052;-71
2022/09/17 06:18:49;;;;;;;11.43;2.23;;;10.30;99.90;;;;;;5050056;28;20044;-71
2022/09/17 06:21:16;;;;;;;12.45;2.45;;;10.20;99.90;;;;;;5045634;28;20509;-70
2022/09/17 06:23:42;;;;;;;15.55;2.78;;;10.10;99.90;;;;;;5048378;28;20102;-72
2022/09/17 06:26:08;;;;;;;10.50;2.28;;;10.00;99.90;;;;;;5046852;28;20049;-71
2022/09/17 06:28:34;;;;;;;18.25;2.72;;;9.90;99.90;;;;;;5014338;28;20140;-71
2022/09/17 06:31:02;;;;;;;21.30;3.00;;;9.90;99.90;;;;;;5022005;28;20491;-71
2022/09/17 06:33:30;;;;;;;19.83;2.95;;;9.90;99.90;;;;;;5044600;28;20068;-71
2022/09/17 06:35:59;;;;;;;19.63;2.38;;;9.90;99.90;;;;;;5008034;28;20041;-71
2022/09/17 06:38:29;;;;;;;14.35;2.83;;;10.00;99.90;;;;;;5006757;28;20045;-73
2022/09/17 06:40:55;;;;;;;17.20;2.65;;;10.20;99.90;;;;;;5043283;28;20053;-69
2022/09/17 06:43:22;;;;;;;19.13;2.80;;;10.20;99.90;;;;;;5038004;28;20119;-69
2022/09/17 06:45:59;;;;;;;13.23;2.95;;;10.40;99.90;;;;;;5040795;28;20048;-69
2022/09/17 06:48:28;;;;;;;9.35;2.17;;;10.70;99.90;;;;;;5048509;28;20041;-68
2022/09/17 06:50:55;;;;;;;8.75;2.00;;;11.10;99.90;;;;;;5024002;28;20049;-69
2022/09/17 06:53:21;;;;;;;13.63;2.22;;;11.40;99.90;;;;;;5027153;28;20569;-69
2022/09/17 06:55:47;;;;;;;18.85;2.33;;;11.60;99.90;;;;;;5046741;28;20037;-69
2022/09/17 06:58:13;;;;;;;14.95;2.38;;;11.80;99.90;;;;;;5039732;28;20115;-68
2022/09/17 07:00:39;;;;;;;15.90;2.33;;;11.80;99.90;;;;;;5050190;28;20040;-71
2022/09/17 07:03:05;;;;;;;14.23;2.65;;;11.70;99.90;;;;;;5020359;28;20493;-70
2022/09/17 07:05:34;;;;;;;16.98;3.08;;;11.70;99.90;;;;;;5030628;28;20049;-70
2022/09/17 07:08:03;;;;;;;20.80;3.25;;;11.90;99.90;;;;;;5022924;28;20056;-71
2022/09/17 07:10:30;;;;;;;22.95;3.05;;;12.00;99.90;;;;;;5043384;28;20041;-70
2022/09/17 07:12:56;;;;;;;15.13;2.70;;;12.20;99.90;;;;;;5040960;28;20380;-69
2022/09/17 07:15:22;;;;;;;12.80;2.80;;;12.30;99.90;;;;;;5046838;28;20041;-70
2022/09/17 07:17:48;;;;;;;22.33;3.60;;;12.20;99.90;;;;;;5048803;28;20119;-69
2022/09/17 07:20:14;;;;;;;18.65;2.70;;;12.10;99.90;;;;;;5051794;28;20132;-71
2022/09/17 07:22:40;;;;;;;23.17;2.97;;;11.90;99.90;;;;;;5046055;28;20040;-71
2022/09/17 07:25:06;;;;;;;10.52;2.55;;;11.80;99.90;;;;;;5046888;28;20511;-71
2022/09/17 07:27:32;;;;;;;15.43;2.85;;;11.60;99.90;;;;;;5051139;28;20044;-70
2022/09/17 07:29:58;;;;;;;13.45;2.85;;;11.50;99.90;;;;;;5012032;28;20420;-70
2022/09/17 07:32:24;;;;;;;15.80;2.60;;;11.40;99.90;;;;;;5026993;28;20481;-70
2022/09/17 07:34:50;;;;;;;17.23;2.45;;;11.40;99.90;;;;;;5015275;28;20045;-71
2022/09/17 07:37:16;;;;;;;15.25;2.35;;;11.60;99.90;;;;;;5032649;28;20120;-70
2022/09/17 07:39:43;;;;;;;21.45;3.03;;;11.70;99.90;;;;;;5030238;28;20042;-72
2022/09/17 07:42:09;;;;;;;14.30;2.55;;;11.80;99.90;;;;;;5028002;28;20096;-70
2022/09/17 07:44:35;;;;;;;14.15;2.75;;;12.00;99.90;;;;;;5026642;28;20128;-70
2022/09/17 07:47:01;;;;;;;16.05;2.55;;;12.20;99.90;;;;;;5029816;28;20045;-70
2022/09/17 07:49:27;;;;;;;15.38;2.30;;;12.40;99.90;;;;;;5012504;28;20139;-70
2022/09/17 07:51:56;;;;;;;12.48;1.92;;;12.50;99.90;;;;;;5021575;28;20041;-70
2022/09/17 07:54:22;;;;;;;16.90;2.95;;;12.70;99.90;;;;;;5008227;28;20045;-69
2022/09/17 07:56:48;;;;;;;11.57;1.90;;;12.70;99.90;;;;;;5006260;28;20570;-72
2022/09/17 07:59:13;;;;;;;11.32;2.25;;;12.50;99.90;;;;;;5014661;28;20080;-70
2022/09/17 08:01:39;;;;;;;13.80;2.45;;;12.30;99.90;;;;;;5013617;28;20037;-70
2022/09/17 08:04:06;;;;;;;8.90;2.13;;;12.10;99.90;;;;;;5026891;28;20045;-71
2022/09/17 08:06:36;;;;;;;12.30;1.80;;;11.90;99.90;;;;;;5021013;28;20115;-71
2022/09/17 08:09:03;;;;;;;10.30;2.33;;;11.90;99.90;;;;;;5025526;28;20117;-71
2022/09/17 08:11:30;;;;;;;15.85;2.28;;;12.00;99.90;;;;;;5025790;28;20045;-71
2022/09/17 08:13:56;;;;;;;12.65;2.47;;;12.20;99.90;;;;;;4997936;28;20049;-69
2022/09/17 08:16:23;;;;;;;9.40;1.83;;;12.30;99.90;;;;;;5023729;28;20037;-71
2022/09/17 08:18:54;;;;;;;8.82;2.03;;;12.30;99.90;;;;;;5001025;28;20037;-71
2022/09/17 08:21:19;;;;;;;14.38;2.58;;;12.50;99.90;;;;;;5027844;28;20033;-70
2022/09/17 08:23:45;;;;;;;16.67;2.67;;;12.60;99.90;;;;;;5027973;28;20479;-70
2022/09/17 08:26:17;;;;;;;17.98;3.00;;;12.90;99.90;;;;;;5029081;28;20048;-70
2022/09/17 08:28:47;;;;;;;17.13;2.38;;;13.00;99.90;;;;;;5023778;28;20041;-70
2022/09/17 08:31:13;;;;;;;15.70;3.00;;;13.10;99.90;;;;;;5020450;28;20045;-70
2022/09/17 08:33:40;;;;;;;13.95;2.30;;;13.20;99.90;;;;;;5050804;28;20045;-70
2022/09/17 08:36:08;;;;;;;23.65;3.35;;;13.40;99.90;;;;;;5035497;28;20155;-70
2022/09/17 08:38:38;;;;;;;6.30;1.73;;;13.60;99.90;;;;;;5044752;28;20080;-70
2022/09/17 08:41:09;;;;;;;17.63;2.70;;;13.50;99.90;;;;;;5043212;28;20068;-70
2022/09/17 08:43:57;;;;;;;10.85;1.85;;;13.60;99.90;;;;;;5042693;28;20045;-70
2022/09/17 08:46:25;;;;;;;13.10;2.35;;;13.80;99.90;;;;;;5042231;28;20041;-69
2022/09/17 08:48:59;;;;;;;17.52;2.72;;;13.90;99.90;;;;;;5039295;28;20056;-70
2022/09/17 08:52:04;;;;;;;16.55;2.65;;;14.00;99.90;;;;;;5046272;28;20048;-70
2022/09/17 08:54:44;;;;;;;12.88;2.33;;;14.10;99.90;;;;;;5018432;28;20056;-72
2022/09/17 08:57:48;;;;;;;5.97;1.73;;;13.80;99.90;;;;;;5034347;28;20084;-70
2022/09/17 09:00:17;;;;;;;4.38;1.08;;;13.30;99.90;;;;;;5007892;28;20111;-69
2022/09/17 09:03:02;;;;;;;8.40;1.70;;;12.70;99.90;;;;;;5031029;28;20120;-70
2022/09/17 09:05:32;;;;;;;8.85;1.73;;;12.40;99.90;;;;;;5040100;28;20048;-69
2022/09/17 09:08:12;;;;;;;7.07;1.35;;;12.20;99.90;;;;;;5040580;28;20034;-70
2022/09/17 09:11:04;;;;;;;10.00;1.77;;;12.10;99.90;;;;;;5027932;28;20075;-69
2022/09/17 09:13:39;;;;;;;11.32;2.10;;;12.10;99.90;;;;;;5032151;28;20041;-69
2022/09/17 09:16:13;;;;;;;15.02;2.28;;;12.00;99.90;;;;;;5024838;28;20509;-70
2022/09/17 09:18:41;;;;;;;8.75;1.67;;;12.00;99.90;;;;;;5025822;28;20041;-69
2022/09/17 09:21:28;;;;;;;8.02;1.73;;;12.00;99.90;;;;;;5035646;28;20071;-70
2022/09/17 09:24:04;;;;;;;12.35;2.10;;;12.00;99.90;;;;;;5032911;28;20056;-70
2022/09/17 09:26:32;;;;;;;10.13;1.80;;;12.00;99.90;;;;;;5048551;28;20041;-70
2022/09/17 09:29:24;;;;;;;11.15;1.85;;;12.10;99.90;;;;;;5030188;28;20518;-70
2022/09/17 09:31:59;;;;;;;7.85;1.75;;;12.20;99.90;;;;;;5016689;28;20055;-69
2022/09/17 09:34:27;;;;;;;11.02;1.63;;;12.00;99.90;;;;;;5044904;28;20605;-70
2022/09/17 09:37:04;;;;;;;;;;;11.60;99.90;;;;;;5048161;28;20048;-70
2022/09/17 09:39:34;;;;;;;5.30;1.83;;;11.30;99.90;;;;;;5029684;28;19983;-69
2022/09/17 09:42:21;;;;;;;5.97;1.58;;;10.90;99.90;;;;;;5039485;28;20037;-71
2022/09/17 09:44:47;;;;;;;12.93;2.40;;;10.80;99.90;;;;;;5047289;28;20124;-69
2022/09/17 09:47:49;;;;;;;11.52;2.17;;;10.80;99.90;;;;;;5028201;28;20487;-70
2022/09/17 09:50:37;;;;;;;12.43;1.80;;;10.90;99.90;;;;;;5030912;28;20466;-69
2022/09/17 09:53:13;;;;;;;10.45;1.92;;;11.00;99.90;;;;;;5013142;28;20049;-70
2022/09/17 09:56:03;;;;;;;14.07;2.47;;;11.00;99.90;;;;;;5043733;28;20057;-70
2022/09/17 09:58:40;;;;;;;13.40;3.03;;;11.20;99.90;;;;;;5021265;28;20402;-70
2022/09/17 10:01:21;;;;;;;15.73;3.22;;;11.40;99.90;;;;;;5039725;28;20037;-71
2022/09/17 10:03:48;;;;;;;12.50;2.65;;;11.60;99.90;;;;;;5019526;28;20044;-71
2022/09/17 10:06:15;;;;;;;18.33;2.53;;;11.70;99.90;;;;;;5041929;28;20399;-70
2022/09/17 10:09:01;;;;;;;12.30;2.33;;;11.80;99.90;;;;;;5047033;28;20044;-71
2022/09/17 10:11:31;;;;;;;17.05;3.00;;;11.90;99.90;;;;;;5040464;28;20041;-70
2022/09/17 10:14:24;;;;;;;10.15;2.22;;;12.00;99.90;;;;;;5037471;28;20029;-70
2022/09/17 10:17:14;;;;;;;12.68;2.53;;;12.30;99.90;;;;;;5025649;28;20069;-73
2022/09/17 10:19:40;;;;;;;;;;;12.40;99.90;;;;;;5042569;28;20106;-71
2022/09/17 10:22:23;;;;;;;11.75;3.10;;;12.30;99.90;;;;;;5028705;28;19921;-72
2022/09/17 10:24:52;;;;;;;11.20;2.05;;;12.10;99.90;;;;;;5048872;28;20045;-71
2022/09/17 10:27:18;;;;;;;;;;;11.90;99.90;;;;;;5024834;28;20091;-70
2022/09/17 10:29:48;;;;;;;19.35;2.83;;;11.80;99.90;;;;;;5043099;28;19929;-70
2022/09/17 10:32:21;;;;;;;20.83;3.40;;;11.80;99.90;;;;;;5020826;28;20110;-71
2022/09/17 10:34:57;;;;;;;15.68;2.42;;;11.70;99.90;;;;;;5045335;28;20065;-71
2022/09/17 10:37:51;;;;;;;17.23;2.50;;;11.90;99.90;;;;;;5041898;28;20041;-70
2022/09/17 10:40:19;;;;;;;8.85;2.13;;;12.20;99.90;;;;;;5035582;28;20048;-70
2022/09/17 10:43:15;;;;;;;14.13;3.75;;;12.80;99.90;;;;;;5047830;28;20087;-71
2022/09/17 10:45:44;;;;;;;14.82;3.10;;;13.40;99.90;;;;;;5029696;28;20099;-71
2022/09/17 10:48:21;;;;;;;13.60;3.45;;;13.90;99.90;;;;;;5044660;28;20041;-70
2022/09/17 10:50:49;;;;;;;11.00;2.38;;;14.30;99.90;;;;;;5048415;28;20041;-70
2022/09/17 10:53:15;;;;;;;;;;;14.40;99.90;;;;;;5048677;28;20132;-70
2022/09/17 10:55:49;;;;;;;17.88;3.10;;;14.40;99.90;;;;;;5053475;28;19927;-70
2022/09/17 10:58:51;;;;;;;21.77;3.53;;;14.30;99.90;;;;;;5003232;28;20112;-71
2022/09/17 11:01:31;;;;;;;12.98;3.25;;;14.30;99.90;;;;;;5042076;28;20037;-70
2022/09/17 11:04:34;;;;;;;12.25;2.45;;;14.60;99.90;;;;;;5038507;28;20053;-72
2022/09/17 11:07:17;;;;;;;19.30;2.85;;;15.00;99.90;;;;;;5039721;28;20095;-69
2022/09/17 11:10:22;;;;;;;11.48;2.20;;;15.30;99.90;;;;;;5032632;28;20136;-71
2022/09/17 11:13:09;;;;;;;12.93;1.70;;;15.50;99.90;;;;;;5024129;28;20056;-71
2022/09/17 11:15:59;;;;;;;10.63;2.40;;;15.50;99.30;;;;;;5044654;28;20036;-71
2022/09/17 11:18:35;;;;;;;12.30;2.47;;;15.30;97.60;;;;;;5029055;28;20049;-70
2022/09/17 11:21:01;;;;;;;9.25;1.67;;;15.20;97.60;;;;;;5036577;28;20045;-72
2022/09/17 11:23:48;;;;;;;13.38;2.33;;;15.40;97.10;;;;;;5042721;28;20045;-71
2022/09/17 11:26:26;;;;;;;13.38;2.08;;;15.60;98.00;;;;;;5022665;28;20046;-70
2022/09/17 11:29:09;;;;;;;7.38;1.65;;;15.90;98.10;;;;;;5038158;28;20045;-73
2022/09/17 11:31:49;;;;;;;13.93;3.63;;;16.10;95.50;;;;;;5024562;28;20458;-71
2022/09/17 11:34:37;;;;;;;14.18;2.40;;;16.30;95.50;;;;;;5020185;28;20056;-71
2022/09/17 11:37:34;;;;;;;6.40;1.73;;;16.40;95.20;;;;;;5028073;28;20052;-72
2022/09/17 11:40:07;;;;;;;12.57;2.72;;;16.40;94.00;;;;;;5022306;28;20038;-71
2022/09/17 11:42:53;;;;;;;15.35;2.45;;;16.20;95.10;;;;;;5028259;28;20049;-71
2022/09/17 11:45:28;;;;;;;14.85;2.72;;;16.00;95.60;;;;;;5026615;28;20041;-70
2022/09/17 11:48:25;;;;;;;10.25;2.28;;;16.20;96.90;;;;;;5027889;28;20451;-71
2022/09/17 11:50:57;;;;;;;14.52;2.70;;;16.70;97.60;;;;;;5016055;28;20075;-70
2022/09/17 11:53:29;;;;;;;13.25;2.58;;;17.10;96.60;;;;;;5014143;28;20402;-70
2022/09/17 11:55:57;;;;;;;21.15;2.50;;;17.20;95.80;;;;;;5005255;28;20506;-70
2022/09/17 11:59:18;;;;;;;14.93;2.80;;;17.20;96.10;;;;;;5025088;28;20049;-70
2022/09/17 12:02:19;;;;;;;14.77;2.53;;;16.70;95.50;;;;;;5014937;28;20073;-71
2022/09/17 12:04:55;;;;;;;10.10;2.33;;;16.60;97.00;;;;;;4993614;28;20140;-69
2022/09/17 12:07:26;;;;;;;5.70;1.70;;;16.90;95.50;;;;;;5002441;28;20128;-70
2022/09/17 12:10:30;;;;;;;9.57;1.95;;;17.20;94.10;;;;;;4999618;28;20160;-70
2022/09/17 12:13:25;;;;;;;13.90;2.72;;;17.30;92.60;;;;;;5026362;28;20346;-69
2022/09/17 12:16:14;;;;;;;9.98;2.25;;;17.40;92.40;;;;;;5006988;28;20470;-70
2022/09/17 12:19:09;;;;;;;;;;;17.50;91.50;;;;;;5027471;28;20193;-70
2022/09/17 12:21:52;;;;;;;17.40;2.72;;;17.70;92.60;;;;;;4933414;28;19958;-69
2022/09/17 12:24:29;;;;;;;12.80;2.53;;;17.70;93.10;;;;;;5010526;28;20549;-71
2022/09/17 12:26:58;;;;;;;12.15;2.45;;;17.50;94.50;;;;;;5025280;28;20049;-70
2022/09/17 12:29:26;;;;;;;8.95;2.00;;;17.10;95.40;;;;;;5017239;28;20447;-70
2022/09/17 12:32:15;;;;;;;10.88;2.08;;;16.60;94.00;;;;;;5034685;28;20048;-69
2022/09/17 12:34:48;;;;;;;7.78;2.00;;;16.20;94.20;;;;;;5022639;28;20123;-70
2022/09/17 12:37:31;;;;;;;12.38;2.15;;;16.40;94.20;;;;;;5045115;28;20508;-70
2022/09/17 12:40:13;;;;;;;8.90;2.08;;;16.80;94.20;;;;;;5043100;28;20041;-70
2022/09/17 12:43:08;;;;;;;13.10;2.40;;;17.00;93.50;;;;;;5002809;28;20075;-69
2022/09/17 12:45:51;;;;;;;24.38;2.70;;;16.80;94.20;;;;;;5023265;28;20053;-68
2022/09/17 12:48:40;;;;;;;16.48;1.88;;;16.50;95.20;;;;;;5039090;28;20041;-69
2022/09/17 12:51:11;;;;;;;14.30;3.10;;;16.20;95.50;;;;;;5010507;28;20398;-69
2022/09/17 12:53:48;;;;;;;9.10;2.17;;;15.80;95.30;;;;;;5040266;28;20045;-69
2022/09/17 12:56:35;;;;;;;10.73;2.97;;;15.60;96.20;;;;;;5049176;28;20090;-68
2022/09/17 12:59:14;;;;;;;12.73;1.95;;;15.80;96.70;;;;;;5040920;28;20045;-70
2022/09/17 13:01:54;;;;;;;15.27;2.55;;;16.30;95.50;;;;;;5044064;28;20173;-69
2022/09/17 13:04:26;;;;;;;12.32;3.28;;;16.50;95.20;;;;;;5043737;28;20052;-72
2022/09/17 13:07:15;;;;;;;19.20;2.67;;;16.50;93.80;;;;;;5026252;28;20049;-70
2022/09/17 13:10:06;;;;;;;13.40;2.38;;;16.40;94.60;;;;;;5027672;28;20079;-70
2022/09/17 13:12:53;;;;;;;15.30;3.10;;;16.20;94.80;;;;;;5040334;28;20124;-70
2022/09/17 13:15:43;;;;;;;15.30;3.03;;;16.20;95.60;;;;;;5040251;28;20037;-70
2022/09/17 13:18:26;;;;;;;12.27;3.40;;;16.00;95.90;;;;;;5047387;28;20522;-71
2022/09/17 13:21:12;;;;;;;15.10;3.22;;;15.80;95.60;;;;;;5018543;28;20041;-71